Time;durP1;ratioP1;P1;durP2;ratioP2;P2;SDS_P1;SDS_P2;PMS_P1;PMS_P2;Temp;Humidity;BMP_temperature;BMP_pressure;BME280_temperature;BME280_humidity;BME280_pressure;Samples;Min_cycle;Max_cycle;Signal;HPM_P1;HPM_P2
2024/03/29 00:02:07;;;;;;;229.07;71.10;;;;;;;;;;4975861;28;20409;-46
2024/03/29 00:04:33;;;;;;;225.93;68.57;;;;;;;;;;4975917;28;20433;-47
2024/03/29 00:06:59;;;;;;;226.17;69.20;;;;;;;;;;4981886;28;20716;-47
2024/03/29 00:09:25;;;;;;;226.25;68.47;;;;;;;;;;4989360;28;20527;-46
2024/03/29 00:11:51;;;;;;;227.30;71.40;;;;;;;;;;4993101;28;20256;-46
2024/03/29 00:14:17;;;;;;;228.77;72.97;;;;;;;;;;4993024;28;20475;-46
2024/03/29 00:16:43;;;;;;;226.37;69.67;;;;;;;;;;4984981;28;20412;-45
2024/03/29 00:19:09;;;;;;;223.33;67.30;;;;;;;;;;4993230;28;20499;-44
2024/03/29 00:21:35;;;;;;;230.07;73.13;;;;;;;;;;4993633;28;20454;-45
2024/03/29 00:24:01;;;;;;;223.60;65.20;;;;;;;;;;4992114;28;20551;-45
2024/03/29 00:26:27;;;;;;;227.27;70.40;;;;;;;;;;4992841;28;20499;-46
2024/03/29 00:28:53;;;;;;;225.32;68.40;;;;;;;;;;4992927;28;20780;-45
2024/03/29 00:31:19;;;;;;;226.87;69.70;;;;;;;;;;4982293;28;20209;-46
2024/03/29 00:33:45;;;;;;;227.20;68.47;;;;;;;;;;4976166;28;21024;-44
2024/03/29 00:36:11;;;;;;;229.20;73.70;;;;;;;;;;4974356;28;20995;-45
2024/03/29 00:38:36;;;;;;;228.07;72.60;;;;;;;;;;4990146;28;20784;-45
2024/03/29 00:41:02;;;;;;;226.20;70.97;;;;;;;;;;4992844;28;20773;-46
2024/03/29 00:43:28;;;;;;;224.80;66.30;;;;;;;;;;4992521;28;20856;-46
2024/03/29 00:45:54;;;;;;;226.77;69.30;;;;;;;;;;4992430;28;20420;-47
2024/03/29 00:48:21;;;;;;;229.33;74.30;;;;;;;;;;4992787;28;20434;-46
2024/03/29 00:50:47;;;;;;;226.30;68.13;;;;;;;;;;4990165;28;20408;-46
2024/03/29 00:53:13;;;;;;;225.97;69.70;;;;;;;;;;4992206;28;20727;-46
2024/03/29 00:55:38;;;;;;;228.63;71.67;;;;;;;;;;4992018;28;20971;-46
2024/03/29 00:58:04;;;;;;;224.77;67.67;;;;;;;;;;4992570;28;20752;-45
2024/03/29 01:00:30;;;;;;;224.93;68.87;;;;;;;;;;4992273;28;20431;-45
2024/03/29 01:02:57;;;;;;;227.07;71.53;;;;;;;;;;4992248;28;20412;-46
2024/03/29 01:05:23;;;;;;;229.93;72.40;;;;;;;;;;4992025;28;20423;-45
2024/03/29 01:07:49;;;;;;;228.57;73.07;;;;;;;;;;4992133;28;20191;-45
2024/03/29 01:10:15;;;;;;;226.90;71.67;;;;;;;;;;4986051;28;20472;-45
2024/03/29 01:12:41;;;;;;;225.73;68.10;;;;;;;;;;4974117;28;20417;-45
2024/03/29 01:15:07;;;;;;;232.53;73.03;;;;;;;;;;4978792;28;20189;-45
2024/03/29 01:17:33;;;;;;;226.90;70.40;;;;;;;;;;4989155;28;20407;-46
2024/03/29 01:19:59;;;;;;;226.43;68.40;;;;;;;;;;4992012;28;20269;-47
2024/03/29 01:22:25;;;;;;;225.00;68.65;;;;;;;;;;4991874;28;20184;-47
2024/03/29 01:24:51;;;;;;;230.13;74.45;;;;;;;;;;4991788;28;20700;-47
2024/03/29 01:27:17;;;;;;;225.57;68.50;;;;;;;;;;4991603;28;20192;-46
2024/03/29 01:29:43;;;;;;;225.37;67.37;;;;;;;;;;4983981;28;20479;-47
2024/03/29 01:32:09;;;;;;;226.45;68.95;;;;;;;;;;4991933;28;20602;-48
2024/03/29 01:34:35;;;;;;;228.53;70.77;;;;;;;;;;4990869;28;20316;-47
2024/03/29 01:37:01;;;;;;;229.23;73.90;;;;;;;;;;4991310;28;20419;-47
2024/03/29 01:39:31;;;;;;;228.60;72.23;;;;;;;;;;4991907;28;20412;-48
2024/03/29 01:41:57;;;;;;;224.45;68.85;;;;;;;;;;4991617;28;20452;-47
2024/03/29 01:44:23;;;;;;;227.95;71.78;;;;;;;;;;4991669;28;20699;-46
2024/03/29 01:46:49;;;;;;;225.50;67.87;;;;;;;;;;4991672;28;20215;-48
2024/03/29 01:49:16;;;;;;;228.27;71.90;;;;;;;;;;4991199;28;20927;-47
2024/03/29 01:51:42;;;;;;;225.15;69.22;;;;;;;;;;4990074;28;20187;-47
2024/03/29 01:54:10;;;;;;;227.57;70.50;;;;;;;;;;4991357;28;20213;-48
2024/03/29 01:56:36;;;;;;;229.77;74.07;;;;;;;;;;4991240;28;20204;-45
2024/03/29 01:59:03;;;;;;;228.38;72.00;;;;;;;;;;4991518;28;20183;-49
2024/03/29 02:01:30;;;;;;;224.00;67.25;;;;;;;;;;4990942;28;20177;-46
2024/03/29 02:03:56;;;;;;;229.85;74.43;;;;;;;;;;4990967;28;20192;-44
2024/03/29 02:06:23;;;;;;;227.55;70.32;;;;;;;;;;4975799;28;20645;-46
2024/03/29 02:08:53;;;;;;;226.75;68.05;;;;;;;;;;4989428;28;20193;-46
2024/03/29 02:11:19;;;;;;;230.52;75.82;;;;;;;;;;4991592;28;20185;-46
2024/03/29 02:13:45;;;;;;;226.52;69.78;;;;;;;;;;4991077;28;20295;-45
2024/03/29 02:16:11;;;;;;;224.47;66.90;;;;;;;;;;4991125;28;20264;-46
2024/03/29 02:18:37;;;;;;;228.07;70.47;;;;;;;;;;4990976;28;20408;-46
2024/03/29 02:21:03;;;;;;;229.90;74.70;;;;;;;;;;4991293;28;20422;-45
2024/03/29 02:23:30;;;;;;;225.75;68.55;;;;;;;;;;4990943;28;20466;-46
2024/03/29 02:25:56;;;;;;;223.93;67.35;;;;;;;;;;4991075;28;20656;-46
2024/03/29 02:28:22;;;;;;;223.15;65.20;;;;;;;;;;4991215;28;20239;-45
2024/03/29 02:30:49;;;;;;;228.63;72.28;;;;;;;;;;4991773;28;20204;-46
2024/03/29 02:33:15;;;;;;;225.95;66.70;;;;;;;;;;4991227;28;20208;-46
2024/03/29 02:35:41;;;;;;;225.43;67.47;;;;;;;;;;4991107;28;20227;-46
2024/03/29 02:38:07;;;;;;;228.80;71.03;;;;;;;;;;4991092;28;20450;-46
2024/03/29 02:40:33;;;;;;;228.43;70.37;;;;;;;;;;4991145;28;20488;-46
2024/03/29 02:42:59;;;;;;;228.23;70.87;;;;;;;;;;4991074;28;21859;-46
2024/03/29 02:45:25;;;;;;;231.87;74.83;;;;;;;;;;4991339;28;20416;-46
2024/03/29 02:47:51;;;;;;;228.13;71.37;;;;;;;;;;4994190;28;20502;-46
2024/03/29 02:50:17;;;;;;;226.20;66.53;;;;;;;;;;4992761;28;20941;-46
2024/03/29 02:52:43;;;;;;;231.05;72.38;;;;;;;;;;4994549;28;20448;-46
2024/03/29 02:55:10;;;;;;;235.77;76.88;;;;;;;;;;4994606;28;20698;-46
2024/03/29 02:57:37;;;;;;;227.50;68.07;;;;;;;;;;4994553;28;20299;-45
2024/03/29 03:00:04;;;;;;;229.65;72.00;;;;;;;;;;4994603;28;20165;-45
2024/03/29 03:02:30;;;;;;;228.95;71.13;;;;;;;;;;4994447;28;20201;-46
2024/03/29 03:04:56;;;;;;;231.07;73.90;;;;;;;;;;4994501;28;20301;-46
2024/03/29 03:12:51;;;;;;;229.82;70.07;;;;;;;;;;4994122;28;20290;-45
2024/03/29 03:15:20;;;;;;;232.23;72.80;;;;;;;;;;4994332;28;20660;-46
2024/03/29 03:17:47;;;;;;;229.60;69.45;;;;;;;;;;4994100;28;20449;-46
2024/03/29 03:20:15;;;;;;;234.23;76.00;;;;;;;;;;4994192;28;20208;-46
2024/03/29 03:22:41;;;;;;;229.68;70.82;;;;;;;;;;4993957;28;20428;-45
2024/03/29 03:25:07;;;;;;;231.95;74.18;;;;;;;;;;4993783;28;20476;-45
2024/03/29 03:27:33;;;;;;;229.02;69.80;;;;;;;;;;4994222;28;20250;-45
2024/03/29 03:29:59;;;;;;;230.00;70.87;;;;;;;;;;4994168;28;20278;-46
2024/03/29 03:32:25;;;;;;;226.97;69.40;;;;;;;;;;4994019;28;20408;-45
2024/03/29 03:34:51;;;;;;;231.97;73.27;;;;;;;;;;4994032;28;20471;-46
2024/03/29 03:37:17;;;;;;;228.13;69.60;;;;;;;;;;4993808;28;20418;-45
2024/03/29 03:39:44;;;;;;;228.33;70.07;;;;;;;;;;4993715;28;20412;-46
2024/03/29 03:42:10;;;;;;;228.43;72.18;;;;;;;;;;4993966;28;20892;-46
2024/03/29 03:44:36;;;;;;;224.77;65.73;;;;;;;;;;4993616;28;20199;-45
2024/03/29 03:47:02;;;;;;;228.90;72.23;;;;;;;;;;4993404;28;20916;-46
2024/03/29 03:49:28;;;;;;;229.13;72.33;;;;;;;;;;4991586;28;20776;-46
2024/03/29 03:51:54;;;;;;;226.90;69.23;;;;;;;;;;4993634;28;20456;-45
2024/03/29 03:54:20;;;;;;;228.30;70.47;;;;;;;;;;4993848;28;20468;-46
2024/03/29 03:56:46;;;;;;;226.97;69.87;;;;;;;;;;4993324;28;20177;-47
2024/03/29 03:59:14;;;;;;;225.47;67.50;;;;;;;;;;4992615;28;20408;-46
2024/03/29 04:01:40;;;;;;;225.90;69.90;;;;;;;;;;4993346;28;20972;-46
2024/03/29 04:04:06;;;;;;;227.17;67.47;;;;;;;;;;4993607;28;20288;-45
2024/03/29 04:06:33;;;;;;;229.83;70.67;;;;;;;;;;4992994;28;20416;-46
2024/03/29 04:08:59;;;;;;;231.25;73.60;;;;;;;;;;4993660;28;20416;-46
2024/03/29 04:11:26;;;;;;;225.90;68.63;;;;;;;;;;4993478;28;20550;-46
2024/03/29 04:13:53;;;;;;;225.07;66.32;;;;;;;;;;4993238;28;20466;-46
2024/03/29 04:16:19;;;;;;;227.57;69.28;;;;;;;;;;4993243;28;20184;-45
2024/03/29 04:18:44;;;;;;;225.53;68.07;;;;;;;;;;4993252;28;20189;-46
2024/03/29 04:21:10;;;;;;;226.30;69.70;;;;;;;;;;4993069;28;20491;-45
2024/03/29 04:23:37;;;;;;;226.13;68.63;;;;;;;;;;4992766;28;20467;-45
2024/03/29 04:26:03;;;;;;;227.93;71.50;;;;;;;;;;4992863;28;20727;-46
2024/03/29 04:28:29;;;;;;;227.10;69.13;;;;;;;;;;4982613;28;20553;-46
2024/03/29 04:30:58;;;;;;;227.93;71.57;;;;;;;;;;4984974;28;20192;-45
2024/03/29 04:33:25;;;;;;;223.82;66.22;;;;;;;;;;4992759;28;20475;-46
2024/03/29 04:36:04;;;;;;;227.90;72.82;;;;;;;;;;4992531;28;20168;-46
2024/03/29 04:38:30;;;;;;;223.52;65.68;;;;;;;;;;4991501;28;20188;-46
2024/03/29 04:40:57;;;;;;;225.13;67.30;;;;;;;;;;4992948;28;20204;-46
2024/03/29 04:43:25;;;;;;;223.70;66.32;;;;;;;;;;4992391;28;20200;-46
2024/03/29 04:45:51;;;;;;;230.02;74.25;;;;;;;;;;4992329;28;20196;-45
2024/03/29 04:48:17;;;;;;;227.32;69.10;;;;;;;;;;4992528;28;20181;-46
2024/03/29 04:50:43;;;;;;;226.63;70.28;;;;;;;;;;4990325;28;20185;-45
2024/03/29 04:53:09;;;;;;;227.53;69.87;;;;;;;;;;4992574;28;20230;-45
2024/03/29 04:55:35;;;;;;;228.17;69.40;;;;;;;;;;4992138;28;20418;-47
2024/03/29 04:58:01;;;;;;;226.65;68.97;;;;;;;;;;4992495;28;20403;-46
2024/03/29 05:00:28;;;;;;;222.98;64.40;;;;;;;;;;4992496;28;20223;-46
2024/03/29 05:02:54;;;;;;;227.50;68.55;;;;;;;;;;4992388;28;20279;-45
2024/03/29 05:05:20;;;;;;;227.23;69.85;;;;;;;;;;4991978;28;20700;-46
2024/03/29 05:07:46;;;;;;;224.70;67.23;;;;;;;;;;4992076;28;20180;-45
2024/03/29 05:10:12;;;;;;;222.93;65.30;;;;;;;;;;4991936;28;20412;-46
2024/03/29 05:12:38;;;;;;;225.15;66.65;;;;;;;;;;4991950;28;20415;-46
2024/03/29 05:15:04;;;;;;;228.27;69.10;;;;;;;;;;4991827;28;20203;-46
2024/03/29 05:17:30;;;;;;;226.00;67.88;;;;;;;;;;4991946;28;20201;-45
2024/03/29 05:19:56;;;;;;;225.83;67.87;;;;;;;;;;4991934;28;20209;-45
2024/03/29 05:22:22;;;;;;;222.82;63.95;;;;;;;;;;4992570;28;20826;-46
2024/03/29 05:24:48;;;;;;;226.40;67.85;;;;;;;;;;4986142;28;20755;-45
2024/03/29 05:27:14;;;;;;;223.97;65.60;;;;;;;;;;4974144;28;20301;-46
2024/03/29 05:29:40;;;;;;;227.57;68.50;;;;;;;;;;4971210;28;20539;-46
2024/03/29 05:32:07;;;;;;;217.67;59.93;;;;;;;;;;4973027;28;20324;-46
2024/03/29 05:34:33;;;;;;;222.02;62.67;;;;;;;;;;4974404;28;20522;-45
2024/03/29 05:36:59;;;;;;;221.57;63.87;;;;;;;;;;4973961;28;20260;-46
2024/03/29 05:39:25;;;;;;;221.40;65.07;;;;;;;;;;4980193;28;20956;-46
2024/03/29 05:41:51;;;;;;;221.37;62.63;;;;;;;;;;4975162;28;20416;-46
2024/03/29 05:44:17;;;;;;;223.37;64.67;;;;;;;;;;4974131;28;20517;-46
2024/03/29 05:46:43;;;;;;;227.43;66.50;;;;;;;;;;4974479;28;20754;-46
2024/03/29 05:49:09;;;;;;;224.20;63.85;;;;;;;;;;4973730;28;20189;-46
2024/03/29 05:51:35;;;;;;;224.07;64.50;;;;;;;;;;4974861;28;20188;-46
2024/03/29 05:54:03;;;;;;;222.77;62.78;;;;;;;;;;4973708;28;20478;-45
2024/03/29 05:56:29;;;;;;;222.27;62.10;;;;;;;;;;4973339;28;20708;-46
2024/03/29 05:58:55;;;;;;;224.57;66.00;;;;;;;;;;4973328;28;20189;-46
2024/03/29 06:01:22;;;;;;;221.57;62.07;;;;;;;;;;4973773;28;20412;-46
2024/03/29 06:03:51;;;;;;;223.93;65.32;;;;;;;;;;4974566;28;20428;-46
2024/03/29 06:06:21;;;;;;;224.13;66.05;;;;;;;;;;4973733;28;20177;-46
2024/03/29 06:08:47;;;;;;;224.10;64.85;;;;;;;;;;4974396;28;20536;-46
2024/03/29 06:11:13;;;;;;;223.87;64.70;;;;;;;;;;4973771;28;20184;-46
2024/03/29 06:19:06;;;;;;;225.15;66.45;;;;;;;;;;4971170;28;20708;-46
2024/03/29 06:21:38;;;;;;;222.45;63.92;;;;;;;;;;4975376;28;20177;-46
2024/03/29 06:24:05;;;;;;;221.88;64.15;;;;;;;;;;4970780;28;20213;-46
2024/03/29 06:26:31;;;;;;;227.40;68.07;;;;;;;;;;4977429;28;20181;-46
2024/03/29 06:28:57;;;;;;;221.67;61.63;;;;;;;;;;4978290;28;20196;-46
2024/03/29 06:31:23;;;;;;;230.30;72.40;;;;;;;;;;4977434;28;20451;-46
2024/03/29 06:33:49;;;;;;;224.00;65.83;;;;;;;;;;4978168;28;20224;-46
2024/03/29 06:36:15;;;;;;;224.63;65.37;;;;;;;;;;4977514;28;20409;-45
2024/03/29 06:38:41;;;;;;;224.60;65.83;;;;;;;;;;4978046;28;20428;-45
2024/03/29 06:41:07;;;;;;;223.37;65.17;;;;;;;;;;4977100;28;20428;-46
2024/03/29 06:43:33;;;;;;;225.10;66.30;;;;;;;;;;4977979;28;20455;-46
2024/03/29 06:46:02;;;;;;;226.00;68.80;;;;;;;;;;4974153;28;20424;-46
2024/03/29 06:48:28;;;;;;;225.88;67.60;;;;;;;;;;4977083;28;20188;-46
2024/03/29 06:50:54;;;;;;;224.67;65.60;;;;;;;;;;4978045;28;20220;-46
2024/03/29 06:53:20;;;;;;;224.17;62.77;;;;;;;;;;4976811;28;20471;-46
2024/03/29 06:55:48;;;;;;;226.10;64.70;;;;;;;;;;4977363;28;20448;-46
2024/03/29 06:58:13;;;;;;;221.52;61.35;;;;;;;;;;4976767;28;20420;-46
2024/03/29 07:00:39;;;;;;;225.60;65.77;;;;;;;;;;4977653;28;20181;-46
2024/03/29 07:03:05;;;;;;;227.80;66.53;;;;;;;;;;4975833;28;20528;-46
2024/03/29 07:05:31;;;;;;;227.97;69.87;;;;;;;;;;4975664;28;20431;-46
2024/03/29 07:07:59;;;;;;;226.10;66.65;;;;;;;;;;4977678;28;20893;-46
2024/03/29 07:10:25;;;;;;;224.57;61.67;;;;;;;;;;4976610;28;20256;-46
2024/03/29 07:12:51;;;;;;;227.48;66.18;;;;;;;;;;4976482;28;20179;-46
2024/03/29 07:15:17;;;;;;;223.90;63.40;;;;;;;;;;4976381;28;20177;-45
2024/03/29 07:17:44;;;;;;;229.07;69.87;;;;;;;;;;4977325;28;20413;-46
2024/03/29 07:20:11;;;;;;;223.73;63.83;;;;;;;;;;4976538;28;20440;-45
2024/03/29 07:22:37;;;;;;;227.18;68.15;;;;;;;;;;4977175;28;20178;-46
2024/03/29 07:25:03;;;;;;;223.20;62.47;;;;;;;;;;4976138;28;20708;-45
2024/03/29 07:27:32;;;;;;;224.57;63.30;;;;;;;;;;4976311;28;20421;-46
2024/03/29 07:30:00;;;;;;;228.30;69.13;;;;;;;;;;4975587;28;20553;-46
2024/03/29 07:32:26;;;;;;;225.38;63.55;;;;;;;;;;4990330;28;20203;-46
2024/03/29 07:34:55;;;;;;;223.50;63.67;;;;;;;;;;4993868;28;20700;-45
2024/03/29 07:37:22;;;;;;;231.65;71.18;;;;;;;;;;4992987;28;20407;-46
2024/03/29 07:39:51;;;;;;;225.50;64.30;;;;;;;;;;4993732;28;20181;-46
2024/03/29 07:42:17;;;;;;;228.68;68.93;;;;;;;;;;4993779;28;20733;-46
2024/03/29 07:44:43;;;;;;;228.63;68.55;;;;;;;;;;4993549;28;20225;-45
2024/03/29 07:47:09;;;;;;;227.53;67.90;;;;;;;;;;4993521;28;20271;-46
2024/03/29 07:49:35;;;;;;;225.85;64.70;;;;;;;;;;4993711;28;20416;-46
2024/03/29 07:52:05;;;;;;;228.30;66.20;;;;;;;;;;4993971;28;20718;-46
2024/03/29 07:54:31;;;;;;;229.95;68.35;;;;;;;;;;4993439;28;20547;-46
2024/03/29 07:56:57;;;;;;;229.03;66.80;;;;;;;;;;4973669;28;20268;-46
2024/03/29 07:59:23;;;;;;;228.47;66.03;;;;;;;;;;4975962;28;20417;-46
2024/03/29 08:01:49;;;;;;;231.53;72.33;;;;;;;;;;4976318;28;20421;-45
2024/03/29 08:04:15;;;;;;;228.77;66.30;;;;;;;;;;4975600;28;20441;-46
2024/03/29 08:06:41;;;;;;;232.03;70.67;;;;;;;;;;4979831;28;20427;-46
2024/03/29 08:09:07;;;;;;;229.23;66.73;;;;;;;;;;4975707;28;20417;-46
2024/03/29 08:11:33;;;;;;;229.35;66.35;;;;;;;;;;4976128;28;20794;-46
2024/03/29 08:13:58;;;;;;;230.77;69.37;;;;;;;;;;4975853;28;20293;-46
2024/03/29 08:16:24;;;;;;;227.50;65.53;;;;;;;;;;4975122;28;20416;-46
2024/03/29 08:18:50;;;;;;;229.90;67.50;;;;;;;;;;4976183;28;20431;-46
2024/03/29 08:21:16;;;;;;;229.07;66.47;;;;;;;;;;4975492;28;20456;-47
2024/03/29 08:23:47;;;;;;;231.57;70.17;;;;;;;;;;4976011;28;20464;-46
2024/03/29 08:26:13;;;;;;;227.55;65.13;;;;;;;;;;4975114;28;20413;-46
2024/03/29 08:28:39;;;;;;;227.83;64.77;;;;;;;;;;4975826;28;20186;-46
2024/03/29 08:31:07;;;;;;;226.27;64.73;;;;;;;;;;4979012;28;20416;-44
2024/03/29 08:33:33;;;;;;;228.95;65.82;;;;;;;;;;4977054;28;20632;-45
2024/03/29 08:35:59;;;;;;;228.60;65.05;;;;;;;;;;4981277;28;20559;-45
2024/03/29 08:38:25;;;;;;;228.73;66.40;;;;;;;;;;4973346;28;20185;-47
2024/03/29 08:40:51;;;;;;;232.37;71.20;;;;;;;;;;4981268;28;20414;-44
2024/03/29 08:43:20;;;;;;;230.32;66.25;;;;;;;;;;4973846;28;20817;-45
2024/03/29 08:45:46;;;;;;;231.05;67.20;;;;;;;;;;4980523;28;20557;-46
2024/03/29 08:48:12;;;;;;;232.23;68.90;;;;;;;;;;4973838;28;20260;-47
2024/03/29 08:50:38;;;;;;;234.03;73.00;;;;;;;;;;4975880;28;20332;-44
2024/03/29 08:53:04;;;;;;;229.45;65.85;;;;;;;;;;4975097;28;20476;-44
2024/03/29 08:55:31;;;;;;;230.30;66.65;;;;;;;;;;4973728;28;20541;-45
2024/03/29 08:57:58;;;;;;;229.32;67.00;;;;;;;;;;4974904;28;20553;-45
2024/03/29 09:00:25;;;;;;;233.18;71.53;;;;;;;;;;4980319;28;20213;-45
2024/03/29 09:02:50;;;;;;;228.50;65.72;;;;;;;;;;4974483;28;20179;-45
2024/03/29 09:05:16;;;;;;;230.30;64.30;;;;;;;;;;4972474;28;20668;-45
2024/03/29 09:07:43;;;;;;;227.53;63.67;;;;;;;;;;4990546;28;20947;-47
2024/03/29 09:10:09;;;;;;;232.20;70.03;;;;;;;;;;4984085;28;20495;-46
2024/03/29 09:12:35;;;;;;;230.70;66.80;;;;;;;;;;4992186;28;20184;-49
2024/03/29 09:15:01;;;;;;;231.77;67.30;;;;;;;;;;4980925;28;20671;-45
2024/03/29 09:17:27;;;;;;;232.25;66.90;;;;;;;;;;4972352;28;20414;-45
2024/03/29 09:19:53;;;;;;;230.57;66.05;;;;;;;;;;4972682;28;20167;-44
2024/03/29 09:22:19;;;;;;;232.68;66.95;;;;;;;;;;4975000;28;20187;-44
2024/03/29 09:24:46;;;;;;;237.60;73.47;;;;;;;;;;4973332;28;20769;-44
2024/03/29 09:27:12;;;;;;;233.15;69.65;;;;;;;;;;4973059;28;20182;-46
2024/03/29 09:29:38;;;;;;;233.73;68.78;;;;;;;;;;4974022;28;20716;-45
2024/03/29 09:32:04;;;;;;;229.80;67.07;;;;;;;;;;4985116;28;20185;-46
2024/03/29 09:34:33;;;;;;;232.40;68.10;;;;;;;;;;4983519;28;20472;-45
2024/03/29 09:36:58;;;;;;;232.10;66.97;;;;;;;;;;4973820;28;20692;-44
2024/03/29 09:39:24;;;;;;;232.07;69.43;;;;;;;;;;4979726;28;20256;-44
2024/03/29 09:41:51;;;;;;;236.30;72.00;;;;;;;;;;4975892;28;20415;-45
2024/03/29 09:44:21;;;;;;;235.65;69.95;;;;;;;;;;4991574;28;20428;-46
2024/03/29 09:46:47;;;;;;;239.40;76.45;;;;;;;;;;4981220;28;20580;-45
2024/03/29 09:49:13;;;;;;;234.82;70.60;;;;;;;;;;4978056;28;20639;-49
2024/03/29 09:51:40;;;;;;;244.40;80.90;;;;;;;;;;4988363;28;20199;-44
2024/03/29 09:54:08;;;;;;;235.43;73.83;;;;;;;;;;4972173;28;20447;-44
2024/03/29 09:56:34;;;;;;;242.50;79.73;;;;;;;;;;4971461;28;20549;-46
2024/03/29 09:59:01;;;;;;;238.37;74.07;;;;;;;;;;4987391;28;20980;-46
2024/03/29 10:01:27;;;;;;;235.47;72.03;;;;;;;;;;4988155;28;20771;-44
2024/03/29 10:03:54;;;;;;;241.13;78.40;;;;;;;;;;4983547;28;20432;-44
2024/03/29 10:06:20;;;;;;;245.40;83.20;;;;;;;;;;4976629;28;20497;-45
2024/03/29 10:08:47;;;;;;;237.83;74.07;;;;;;;;;;4972915;28;20413;-44
2024/03/29 10:11:16;;;;;;;239.33;76.40;;;;;;;;;;4985681;28;20942;-44
2024/03/29 10:13:44;;;;;;;242.07;79.53;;;;;;;;;;4979829;28;20525;-45
2024/03/29 10:16:12;;;;;;;239.27;76.97;;;;;;;;;;4971952;28;20408;-46
2024/03/29 10:18:38;;;;;;;240.57;78.67;;;;;;;;;;4980903;28;20495;-44
2024/03/29 10:21:04;;;;;;;236.93;74.00;;;;;;;;;;4991235;28;20506;-44
2024/03/29 10:23:30;;;;;;;238.97;73.53;;;;;;;;;;4975214;28;20457;-45
2024/03/29 10:25:57;;;;;;;241.43;80.30;;;;;;;;;;4983414;28;20805;-44
2024/03/29 10:28:23;;;;;;;237.63;77.30;;;;;;;;;;4983210;28;20508;-44
2024/03/29 10:30:49;;;;;;;242.13;81.03;;;;;;;;;;4983199;28;20422;-46
2024/03/29 10:33:16;;;;;;;239.80;78.97;;;;;;;;;;4983106;28;20463;-45
2024/03/29 10:35:45;;;;;;;240.33;77.00;;;;;;;;;;4982883;28;20417;-44
2024/03/29 10:38:11;;;;;;;236.60;74.53;;;;;;;;;;4983214;28;20443;-44
2024/03/29 10:40:40;;;;;;;237.25;75.63;;;;;;;;;;4981689;28;20419;-47
2024/03/29 10:43:12;;;;;;;241.23;80.77;;;;;;;;;;4984761;28;20200;-44
2024/03/29 10:45:37;;;;;;;241.07;79.73;;;;;;;;;;4973329;28;20937;-45
2024/03/29 10:48:07;;;;;;;239.60;78.13;;;;;;;;;;4984371;28;20437;-48
2024/03/29 10:50:36;;;;;;;238.65;77.70;;;;;;;;;;4980379;28;20440;-46
2024/03/29 10:53:02;;;;;;;236.37;74.37;;;;;;;;;;4982943;28;20603;-45
2024/03/29 10:55:33;;;;;;;239.37;77.80;;;;;;;;;;4974964;28;20416;-44
2024/03/29 10:58:00;;;;;;;243.07;81.00;;;;;;;;;;4968287;28;20408;-45
2024/03/29 11:00:28;;;;;;;241.13;77.97;;;;;;;;;;4983001;28;20452;-44
2024/03/29 11:03:06;;;;;;;244.27;80.77;;;;;;;;;;4967271;28;20792;-44
2024/03/29 11:05:33;;;;;;;245.13;83.53;;;;;;;;;;4982440;28;20408;-44
2024/03/29 11:07:59;;;;;;;245.83;83.50;;;;;;;;;;4977570;28;20443;-45
2024/03/29 11:10:29;;;;;;;244.77;82.57;;;;;;;;;;4986662;28;20862;-44
2024/03/29 11:13:19;;;;;;;249.37;87.47;;;;;;;;;;4991130;28;20410;-46
2024/03/29 11:15:45;;;;;;;246.87;87.53;;;;;;;;;;4993096;28;20495;-46
2024/03/29 11:18:12;;;;;;;246.37;85.60;;;;;;;;;;4994842;28;20409;-45
2024/03/29 11:20:40;;;;;;;246.77;85.17;;;;;;;;;;4986439;28;20420;-45
2024/03/29 11:23:11;;;;;;;242.67;82.40;;;;;;;;;;4988854;28;21078;-44
2024/03/29 11:25:39;;;;;;;243.87;81.73;;;;;;;;;;4976348;28;20441;-44
2024/03/29 11:28:09;;;;;;;242.93;80.87;;;;;;;;;;4975818;28;20406;-44
2024/03/29 11:30:48;;;;;;;243.33;81.03;;;;;;;;;;4975726;28;20405;-45
2024/03/29 11:33:27;;;;;;;244.67;83.37;;;;;;;;;;4969305;28;20479;-45
2024/03/29 11:35:53;;;;;;;243.50;80.67;;;;;;;;;;4974503;28;20454;-45
2024/03/29 11:38:19;;;;;;;242.17;80.73;;;;;;;;;;4981377;28;20406;-47
2024/03/29 11:41:14;;;;;;;243.33;82.73;;;;;;;;;;4977934;28;20428;-46
2024/03/29 11:43:41;;;;;;;242.93;80.47;;;;;;;;;;4968589;28;20492;-45
2024/03/29 11:46:08;;;;;;;241.80;77.93;;;;;;;;;;4979449;28;20440;-45
2024/03/29 11:48:35;;;;;;;246.17;88.17;;;;;;;;;;4977103;28;20410;-47
2024/03/29 11:51:02;;;;;;;243.47;80.87;;;;;;;;;;4974620;28;20412;-45
2024/03/29 11:53:29;;;;;;;245.30;81.93;;;;;;;;;;4982345;28;20486;-48
2024/03/29 11:55:56;;;;;;;248.70;87.90;;;;;;;;;;4985861;28;20539;-46
2024/03/29 11:58:22;;;;;;;247.33;85.17;;;;;;;;;;4985786;28;20412;-45
2024/03/29 12:00:49;;;;;;;252.33;90.37;;;;;;;;;;4991051;28;20920;-47
2024/03/29 12:03:19;;;;;;;247.57;84.00;;;;;;;;;;4974156;28;20431;-45
2024/03/29 12:05:46;;;;;;;249.37;88.60;;;;;;;;;;4982199;28;20513;-45
2024/03/29 12:08:13;;;;;;;251.03;91.10;;;;;;;;;;4987624;28;20816;-47
2024/03/29 12:10:40;;;;;;;254.47;96.43;;;;;;;;;;4985348;28;20408;-45
2024/03/29 12:13:06;;;;;;;253.67;94.37;;;;;;;;;;4980506;28;20442;-44
2024/03/29 12:15:32;;;;;;;252.27;94.17;;;;;;;;;;4974140;28;20409;-44
2024/03/29 12:17:58;;;;;;;248.47;88.87;;;;;;;;;;4977608;28;20424;-44
2024/03/29 12:20:24;;;;;;;252.67;92.77;;;;;;;;;;4992616;28;20495;-44
2024/03/29 12:22:51;;;;;;;246.93;84.90;;;;;;;;;;4982214;28;20553;-45
2024/03/29 12:25:18;;;;;;;249.90;88.33;;;;;;;;;;4973775;28;20507;-44
2024/03/29 12:27:45;;;;;;;251.20;89.80;;;;;;;;;;4983595;28;20456;-45
2024/03/29 12:30:12;;;;;;;247.00;86.47;;;;;;;;;;4993238;28;20440;-45
2024/03/29 12:32:38;;;;;;;243.37;82.00;;;;;;;;;;4976952;28;20406;-47
2024/03/29 12:35:17;;;;;;;242.57;78.63;;;;;;;;;;4988150;28;20468;-45
2024/03/29 12:37:53;;;;;;;245.40;82.53;;;;;;;;;;4975281;28;20998;-44
2024/03/29 12:40:22;;;;;;;242.77;79.40;;;;;;;;;;4993042;28;20400;-46
2024/03/29 12:42:51;;;;;;;243.60;81.73;;;;;;;;;;4982359;28;20405;-45
2024/03/29 12:45:18;;;;;;;243.30;81.17;;;;;;;;;;4973249;28;20495;-45
2024/03/29 12:47:45;;;;;;;247.77;86.60;;;;;;;;;;4975194;28;20515;-46
2024/03/29 12:50:13;;;;;;;242.83;82.23;;;;;;;;;;4979160;28;20416;-46
2024/03/29 12:52:43;;;;;;;244.83;81.03;;;;;;;;;;4973969;28;20423;-47
2024/03/29 12:55:10;;;;;;;256.88;91.20;;;;;;;;;;4973900;28;20448;-45
2024/03/29 12:57:36;;;;;;;245.27;83.57;;;;;;;;;;4973310;28;20178;-46
2024/03/29 13:00:03;;;;;;;243.37;83.43;;;;;;;;;;4973205;28;20413;-45
2024/03/29 13:02:29;;;;;;;248.27;88.73;;;;;;;;;;4981264;28;20768;-45
2024/03/29 13:04:56;;;;;;;249.17;88.30;;;;;;;;;;4988850;28;20432;-49
2024/03/29 13:07:22;;;;;;;243.90;83.03;;;;;;;;;;4980769;28;20434;-45
2024/03/29 13:09:48;;;;;;;245.87;83.73;;;;;;;;;;4972899;28;20405;-45
2024/03/29 13:12:14;;;;;;;241.80;79.20;;;;;;;;;;4972980;28;20415;-45
2024/03/29 13:14:40;;;;;;;246.03;84.47;;;;;;;;;;4981975;28;20467;-47
2024/03/29 13:17:06;;;;;;;242.70;78.87;;;;;;;;;;4978887;28;20436;-46
2024/03/29 13:19:33;;;;;;;247.70;88.20;;;;;;;;;;4979237;28;20408;-45
2024/03/29 13:21:59;;;;;;;240.00;77.32;;;;;;;;;;4972025;28;20416;-44
2024/03/29 13:24:25;;;;;;;239.40;77.30;;;;;;;;;;4979920;28;20638;-44
2024/03/29 13:26:51;;;;;;;242.77;79.00;;;;;;;;;;4981358;28;20491;-45
2024/03/29 13:29:17;;;;;;;240.30;76.68;;;;;;;;;;4980504;28;20443;-46
2024/03/29 13:31:43;;;;;;;242.50;77.00;;;;;;;;;;4973618;28;20188;-44
2024/03/29 13:34:12;;;;;;;238.13;72.77;;;;;;;;;;4972618;28;20498;-45
2024/03/29 13:36:41;;;;;;;242.30;78.93;;;;;;;;;;4973327;28;20515;-46
2024/03/29 13:39:13;;;;;;;240.15;75.68;;;;;;;;;;4991964;28;20235;-45
2024/03/29 13:41:40;;;;;;;240.40;77.32;;;;;;;;;;4984043;28;20705;-45
2024/03/29 13:44:06;;;;;;;239.50;76.80;;;;;;;;;;4991894;28;20598;-44
2024/03/29 13:46:33;;;;;;;238.90;75.60;;;;;;;;;;4991574;28;20421;-44
2024/03/29 13:48:59;;;;;;;239.57;77.47;;;;;;;;;;4991850;28;20425;-45
2024/03/29 13:51:25;;;;;;;235.80;72.90;;;;;;;;;;4989663;28;20224;-44
2024/03/29 13:53:51;;;;;;;239.68;79.65;;;;;;;;;;4991531;28;20510;-44
2024/03/29 13:56:17;;;;;;;238.67;77.43;;;;;;;;;;4985148;28;20173;-43
2024/03/29 13:58:43;;;;;;;237.93;74.17;;;;;;;;;;4984322;28;20833;-44
2024/03/29 14:01:09;;;;;;;237.33;72.00;;;;;;;;;;4991840;28;20420;-44
2024/03/29 14:03:35;;;;;;;236.75;79.20;;;;;;;;;;4991795;28;20456;-44
2024/03/29 14:06:01;;;;;;;235.23;76.30;;;;;;;;;;4991299;28;20664;-44
2024/03/29 14:08:27;;;;;;;236.57;72.20;;;;;;;;;;4991606;28;20824;-44
2024/03/29 14:10:53;;;;;;;242.67;80.50;;;;;;;;;;4990022;28;20412;-44
2024/03/29 14:13:20;;;;;;;238.63;73.97;;;;;;;;;;4990723;28;20606;-44